Time;durP1;ratioP1;P1;durP2;ratioP2;P2;SDS_P1;SDS_P2;PMS_P1;PMS_P2;Temp;Humidity;BMP_temperature;BMP_pressure;BME280_temperature;BME280_humidity;BME280_pressure;Samples;Min_cycle;Max_cycle;Signal;HPM_P1;HPM_P2
2021/07/30 00:00:58;;;;;;;3.25;1.39;;;;;;;13.26;83.48;98981.94;2020653;77;27471;-76
2021/07/30 00:04:01;;;;;;;6.79;1.34;;;;;;;13.19;83.67;98966.47;2017354;80;20195;-77
2021/07/30 00:07:04;;;;;;;4.32;1.35;;;;;;;13.14;83.71;98979.59;2017217;80;20640;-76
2021/07/30 00:10:07;;;;;;;3.54;1.65;;;;;;;13.15;83.71;98983.91;2017115;80;20197;-77
2021/07/30 00:13:09;;;;;;;4.22;1.38;;;;;;;13.14;83.94;98976.97;2017908;80;20272;-77
2021/07/30 00:16:12;;;;;;;7.91;1.46;;;;;;;13.11;84.03;98969.22;2016599;77;21446;-76
2021/07/30 00:19:15;;;;;;;5.45;1.80;;;;;;;13.07;84.00;98970.16;2017148;80;20950;-77
2021/07/30 00:22:17;;;;;;;2.17;1.36;;;;;;;13.01;84.22;98965.94;2017268;80;20285;-77
2021/07/30 00:25:20;;;;;;;2.55;1.39;;;;;;;12.93;84.62;98965.25;2017158;80;20168;-77
2021/07/30 00:28:23;;;;;;;5.43;1.55;;;;;;;12.92;84.59;98970.47;2017337;80;20183;-77
2021/07/30 00:31:25;;;;;;;2.54;1.56;;;;;;;12.90;84.59;98972.25;2019193;78;20201;-77
2021/07/30 00:34:28;;;;;;;2.34;1.26;;;;;;;12.88;84.41;98972.28;2023038;80;20305;-77
2021/07/30 00:37:32;;;;;;;6.65;1.60;;;;;;;12.86;84.43;98968.88;2022100;80;20817;-78
2021/07/30 00:40:35;;;;;;;4.41;1.70;;;;;;;12.83;84.70;98968.06;2022645;80;20697;-77
2021/07/30 00:43:37;;;;;;;1.44;1.34;;;;;;;12.84;84.69;98965.44;2022686;80;20167;-79
2021/07/30 00:46:40;;;;;;;2.63;1.45;;;;;;;12.85;84.60;98968.91;2018985;77;20265;-78
2021/07/30 00:49:43;;;;;;;3.08;1.79;;;;;;;12.83;84.72;98968.06;2017293;80;20207;-77
2021/07/30 00:52:46;;;;;;;2.72;1.59;;;;;;;12.79;84.60;98962.06;2017744;80;20243;-79
2021/07/30 00:55:49;;;;;;;4.57;1.35;;;;;;;12.75;84.74;98956.94;2017704;80;20283;-78
2021/07/30 00:58:52;;;;;;;3.39;1.63;;;;;;;12.74;84.68;98960.44;2017708;80;20184;-77
2021/07/30 01:01:54;;;;;;;1.79;1.40;;;;;;;12.71;84.79;98958.75;2019560;77;22456;-77
2021/07/30 01:04:57;;;;;;;6.03;1.91;;;;;;;12.69;84.66;98957.94;2022825;80;20781;-77
2021/07/30 01:08:01;;;;;;;3.26;1.39;;;;;;;12.65;84.73;98958.88;2021742;80;20298;-78
2021/07/30 01:11:04;;;;;;;7.51;1.67;;;;;;;12.64;84.83;98959.78;2022876;80;20250;-78
2021/07/30 01:14:09;;;;;;;2.78;1.99;;;;;;;12.59;84.69;98949.44;2022707;80;20644;-77
2021/07/30 01:17:12;;;;;;;2.41;1.79;;;;;;;12.58;84.81;98962.50;2017406;77;23870;-77
2021/07/30 01:20:15;;;;;;;1.65;1.49;;;;;;;12.57;85.03;98959.03;2017643;80;20241;-78
2021/07/30 01:23:18;;;;;;;2.26;1.63;;;;;;;12.56;84.90;98953.84;2017349;80;20233;-79
2021/07/30 01:26:20;;;;;;;2.04;1.69;;;;;;;12.50;84.83;98951.38;2017056;80;20229;-77
2021/07/30 01:29:24;;;;;;;2.80;1.51;;;;;;;12.48;84.85;98951.41;2017313;80;21051;-78
2021/07/30 01:32:27;;;;;;;4.76;1.71;;;;;;;12.47;85.11;98951.44;2017816;77;20274;-77
2021/07/30 01:35:30;;;;;;;4.91;1.83;;;;;;;12.45;85.11;98956.66;2022581;80;20281;-79
2021/07/30 01:38:33;;;;;;;1.99;1.65;;;;;;;12.43;84.99;98962.78;2022813;80;20182;-78
2021/07/30 01:41:35;;;;;;;2.97;1.81;;;;;;;12.39;84.91;98954.19;2022535;80;20236;-79
2021/07/30 01:44:38;;;;;;;2.06;1.58;;;;;;;12.39;85.06;98955.06;2023013;80;20209;-79
2021/07/30 01:47:40;;;;;;;2.94;1.79;;;;;;;12.36;85.04;98952.47;2022061;77;24542;-78
2021/07/30 01:50:43;;;;;;;3.08;1.80;;;;;;;12.32;85.20;98958.63;2022150;80;20382;-78
2021/07/30 01:53:46;;;;;;;4.11;1.66;;;;;;;12.28;85.39;98951.78;2022140;80;20178;-77
2021/07/30 01:56:48;;;;;;;2.42;1.73;;;;;;;12.24;85.52;98944.91;2022139;80;20204;-77
2021/07/30 01:59:51;;;;;;;3.41;1.64;;;;;;;12.19;85.57;98951.94;2022767;80;20159;-78
2021/07/30 02:02:53;;;;;;;1.90;1.49;;;;;;;12.19;85.58;98951.06;2017537;77;22499;-78
2021/07/30 02:05:56;;;;;;;5.49;1.89;;;;;;;12.18;85.74;98944.16;2018261;80;20913;-78
2021/07/30 02:08:59;;;;;;;1.56;1.46;;;;;;;12.15;85.75;98939.00;2019207;80;20208;-77
2021/07/30 02:12:02;;;;;;;1.84;1.40;;;;;;;12.15;85.80;98946.81;2018874;80;20176;-78
2021/07/30 02:15:05;;;;;;;3.08;1.38;;;;;;;12.15;85.74;98949.41;2018165;80;20656;-78
2021/07/30 02:18:08;;;;;;;2.90;1.60;;;;;;;12.13;85.82;98944.22;2024373;77;22946;-78
2021/07/30 02:21:11;;;;;;;3.70;1.51;;;;;;;12.12;85.69;98939.06;2024156;80;20227;-77
2021/07/30 02:24:14;;;;;;;3.19;1.85;;;;;;;12.12;85.73;98939.06;2024469;80;20239;-78
2021/07/30 02:27:16;;;;;;;2.03;1.51;;;;;;;12.08;85.63;98940.88;2024919;80;20740;-79
2021/07/30 02:30:19;;;;;;;5.56;1.80;;;;;;;12.06;85.54;98940.91;2023861;77;20167;-77
2021/07/30 02:33:21;;;;;;;2.15;1.73;;;;;;;12.03;85.72;98934.91;2019493;80;20223;-78
2021/07/30 02:36:24;;;;;;;4.16;1.69;;;;;;;12.01;85.92;98932.28;2019345;80;20673;-78
2021/07/30 02:39:27;;;;;;;2.60;1.65;;;;;;;11.99;86.07;98931.47;2019964;80;20275;-78
2021/07/30 02:42:29;;;;;;;3.80;1.70;;;;;;;11.98;85.91;98934.09;2020351;80;20294;-79
2021/07/30 02:45:32;;;;;;;4.56;1.94;;;;;;;11.93;85.95;98928.97;2019996;78;26439;-79
2021/07/30 02:48:35;;;;;;;5.70;1.76;;;;;;;11.91;85.95;98922.94;2024241;80;20222;-79
2021/07/30 02:51:37;;;;;;;2.86;2.06;;;;;;;11.88;86.04;98925.59;2024899;80;20179;-78
2021/07/30 02:54:40;;;;;;;2.31;1.80;;;;;;;11.87;86.17;98923.03;2024647;80;20209;-78
2021/07/30 02:57:45;;;;;;;3.66;2.26;;;;;;;11.87;86.19;98930.84;2024989;80;20442;-82
2021/07/30 03:00:48;;;;;;;7.36;1.79;;;;;;;11.87;85.92;98917.81;2023539;78;20196;-78
2021/07/30 03:03:50;;;;;;;3.94;1.96;;;;;;;11.86;85.99;98924.78;2023396;80;20313;-78
2021/07/30 03:06:53;;;;;;;6.09;1.70;;;;;;;11.85;86.24;98924.78;2023827;80;20175;-79
2021/07/30 03:09:56;;;;;;;2.90;1.60;;;;;;;11.84;86.44;98918.72;2023436;80;20187;-79
2021/07/30 03:12:58;;;;;;;2.85;1.60;;;;;;;11.87;86.55;98915.22;2024296;80;20183;-78
2021/07/30 03:16:01;;;;;;;2.06;1.86;;;;;;;11.84;86.23;98917.84;2026858;80;20166;-79
2021/07/30 03:19:03;;;;;;;2.49;1.61;;;;;;;11.82;86.14;98909.22;2022568;80;20175;-77
2021/07/30 03:22:06;;;;;;;2.16;1.66;;;;;;;11.82;86.23;98904.88;2024232;80;20953;-78
2021/07/30 03:25:09;;;;;;;2.13;1.66;;;;;;;11.83;86.58;98908.34;2023410;80;20159;-79
2021/07/30 03:28:12;;;;;;;4.53;1.66;;;;;;;11.86;86.87;98909.16;2023456;80;20178;-78
2021/07/30 03:31:14;;;;;;;3.81;1.96;;;;;;;11.89;87.09;98901.31;2019965;77;21421;-79
2021/07/30 03:34:17;;;;;;;2.10;1.90;;;;;;;11.89;86.85;98901.31;2018164;80;20656;-78
2021/07/30 03:37:20;;;;;;;3.33;1.96;;;;;;;11.88;87.00;98904.78;2018504;80;20305;-78
2021/07/30 03:40:23;;;;;;;5.06;1.89;;;;;;;11.87;87.14;98897.88;2017934;80;20223;-78
2021/07/30 03:43:26;;;;;;;4.71;2.30;;;;;;;11.89;87.38;98900.44;2017583;80;20171;-78
2021/07/30 03:46:28;;;;;;;2.29;1.90;;;;;;;11.89;87.44;98892.66;2019785;77;20243;-77
2021/07/30 03:49:31;;;;;;;3.14;1.73;;;;;;;11.92;87.35;98888.25;2024253;80;20175;-78
2021/07/30 03:52:34;;;;;;;5.09;1.84;;;;;;;11.94;87.20;98896.88;2023330;80;20167;-78
2021/07/30 03:55:37;;;;;;;3.25;2.10;;;;;;;11.94;87.25;98890.81;2022826;80;20660;-78
2021/07/30 03:58:46;;;;;;;4.45;2.04;;;;;;;11.95;87.16;98889.91;2022782;80;20231;-78
2021/07/30 04:01:49;;;;;;;4.94;1.94;;;;;;;11.98;87.13;98887.25;2019085;77;22365;-79
2021/07/30 04:04:52;;;;;;;4.70;1.88;;;;;;;11.95;87.23;98892.53;2018115;80;20188;-79
2021/07/30 04:07:55;;;;;;;13.09;2.28;;;;;;;11.93;87.52;98889.09;2017685;80;20183;-78
2021/07/30 04:10:59;;;;;;;3.44;2.06;;;;;;;11.91;87.57;98888.28;2017939;80;20213;-78
2021/07/30 04:14:01;;;;;;;2.99;1.56;;;;;;;11.90;87.42;98891.75;2018153;80;20624;-78
2021/07/30 04:17:06;;;;;;;3.55;1.99;;;;;;;11.89;87.39;98888.28;2020608;77;22287;-79
2021/07/30 04:20:09;;;;;;;3.06;1.90;;;;;;;11.87;87.54;98887.47;2018761;80;20224;-78
2021/07/30 04:23:12;;;;;;;2.78;1.94;;;;;;;11.90;87.49;98889.16;2022599;80;20167;-79
2021/07/30 04:26:15;;;;;;;2.15;1.89;;;;;;;11.89;87.44;98887.44;2022696;80;20181;-79
2021/07/30 04:29:17;;;;;;;3.88;2.17;;;;;;;11.91;87.26;98890.88;2022871;80;20167;-80
2021/07/30 04:32:20;;;;;;;4.76;2.16;;;;;;;11.90;87.37;98883.94;2017746;80;22613;-79
2021/07/30 04:35:22;;;;;;;5.03;2.05;;;;;;;11.94;87.40;98891.66;2017163;80;20172;-82
2021/07/30 04:38:25;;;;;;;5.14;2.40;;;;;;;11.92;87.52;98888.25;2017974;80;20193;-78
2021/07/30 04:41:28;;;;;;;4.19;2.50;;;;;;;11.96;87.60;98891.63;2017320;80;20193;-78
2021/07/30 04:44:34;;;;;;;5.04;2.10;;;;;;;12.00;87.82;98898.50;2017620;80;20221;-78
2021/07/30 04:47:36;;;;;;;5.34;2.05;;;;;;;12.09;87.73;98895.75;2021968;77;37731;-78
2021/07/30 04:50:39;;;;;;;2.45;2.05;;;;;;;12.13;87.68;98892.19;2023184;80;20236;-78
2021/07/30 04:53:41;;;;;;;2.86;1.99;;;;;;;12.17;87.69;98896.44;2023085;80;20188;-78
2021/07/30 04:56:44;;;;;;;3.31;1.96;;;;;;;12.19;87.79;98892.06;2023639;80;20187;-78
2021/07/30 04:59:47;;;;;;;4.11;2.01;;;;;;;12.29;87.84;98885.81;2023036;80;20198;-78
2021/07/30 05:02:53;;;;;;;4.44;2.09;;;;;;;12.44;87.64;98896.81;2017669;77;24317;-79
2021/07/30 05:05:55;;;;;;;5.60;2.17;;;;;;;12.54;87.28;98890.50;2013722;80;20212;-78
2021/07/30 05:08:58;;;;;;;2.64;2.33;;;;;;;12.64;87.32;98892.91;2017308;80;20336;-78
2021/07/30 05:12:00;;;;;;;5.03;2.10;;;;;;;12.79;87.52;98896.94;2017851;80;20172;-79
2021/07/30 05:15:04;;;;;;;2.84;2.08;;;;;;;12.94;87.07;98898.38;2016871;80;20183;-78
2021/07/30 05:18:07;;;;;;;2.69;1.88;;;;;;;13.05;86.90;98892.91;2019452;78;22609;-79
2021/07/30 05:21:14;;;;;;;5.03;2.45;;;;;;;13.16;86.70;98893.53;2022842;80;20248;-78
2021/07/30 05:24:17;;;;;;;2.46;2.26;;;;;;;13.25;86.44;98894.19;2023250;80;20232;-78
2021/07/30 05:27:20;;;;;;;2.31;2.11;;;;;;;13.37;85.99;98885.22;2022506;80;20167;-78
2021/07/30 05:30:22;;;;;;;3.36;2.30;;;;;;;13.51;85.55;98880.56;2021613;80;21715;-78
2021/07/30 05:33:26;;;;;;;2.92;2.10;;;;;;;13.67;85.52;98877.56;2019649;80;20276;-72
2021/07/30 05:36:28;;;;;;;3.03;2.56;;;;;;;13.79;85.28;98888.53;2022533;80;20768;-76
2021/07/30 05:39:31;;;;;;;4.66;2.19;;;;;;;13.95;84.78;98885.53;2022292;80;20179;-76
2021/07/30 05:42:34;;;;;;;4.35;2.60;;;;;;;14.10;84.22;98887.75;2021816;80;20802;-77
2021/07/30 05:45:37;;;;;;;8.39;2.28;;;;;;;14.06;84.27;98879.13;2019878;80;23384;-75
2021/07/30 05:48:39;;;;;;;6.05;2.65;;;;;;;14.20;84.32;98873.56;2017662;80;20940;-76
2021/07/30 05:51:42;;;;;;;6.43;2.20;;;;;;;14.33;84.36;98882.72;2017275;80;20188;-77
2021/07/30 05:54:44;;;;;;;3.89;2.34;;;;;;;14.51;84.15;98882.25;2018080;80;20285;-75
2021/07/30 05:57:47;;;;;;;7.86;2.47;;;;;;;14.62;83.52;98871.50;2017313;80;20521;-79
2021/07/30 06:00:49;;;;;;;6.86;2.63;;;;;;;14.79;82.87;98873.63;2019469;77;25736;-78
2021/07/30 06:03:52;;;;;;;8.00;3.03;;;;;;;15.16;81.79;98868.13;2023321;80;20194;-78
2021/07/30 06:06:55;;;;;;;7.16;2.69;;;;;;;15.64;79.92;98860.50;2023555;80;20183;-78
2021/07/30 06:09:58;;;;;;;5.57;2.97;;;;;;;16.19;78.32;98865.59;2023807;80;20269;-78
2021/07/30 06:13:01;;;;;;;8.89;2.71;;;;;;;16.75;75.87;98862.69;2023544;80;20171;-78
2021/07/30 06:16:07;;;;;;;4.97;2.44;;;;;;;17.09;74.44;98857.00;2021351;77;23903;-79
2021/07/30 06:19:30;;;;;;;9.01;2.91;;;;;;;17.64;72.48;98865.25;2022041;80;20244;-79
2021/07/30 06:22:35;;;;;;;5.50;2.29;;;;;;;18.15;70.42;98862.22;2018221;80;20183;-79
2021/07/30 06:25:38;;;;;;;8.64;2.83;;;;;;;18.64;69.13;98858.28;2014992;80;20169;-78
2021/07/30 06:28:41;;;;;;;5.56;2.33;;;;;;;19.02;67.82;98858.28;2018278;80;20196;-79
2021/07/30 06:31:43;;;;;;;8.38;2.05;;;;;;;19.35;66.74;98862.84;2021048;77;21141;-79
2021/07/30 06:34:46;;;;;;;5.75;2.03;;;;;;;19.67;64.88;98863.94;2024032;80;20171;-79
2021/07/30 06:37:49;;;;;;;4.82;1.96;;;;;;;20.04;63.86;98855.03;2031568;80;20167;-82
2021/07/30 06:40:51;;;;;;;4.40;1.85;;;;;;;20.35;62.94;98859.56;2031361;80;20183;-81
2021/07/30 06:43:54;;;;;;;5.29;1.99;;;;;;;20.59;62.34;98860.06;2031123;80;20192;-81
2021/07/30 06:46:56;;;;;;;6.75;1.98;;;;;;;20.79;62.08;98865.97;2027457;77;21331;-82
2021/07/30 06:49:59;;;;;;;3.19;1.77;;;;;;;21.01;61.69;98865.66;2028424;80;20172;-82
2021/07/30 06:53:02;;;;;;;2.88;1.73;;;;;;;21.18;61.13;98862.06;2029152;80;20164;-82
2021/07/30 06:56:09;;;;;;;2.64;1.80;;;;;;;21.39;60.49;98860.91;2027858;80;20194;-83
2021/07/30 06:59:22;;;;;;;6.31;1.64;;;;;;;21.66;59.91;98855.81;2029791;80;20180;-82
2021/07/30 07:02:25;;;;;;;3.61;1.48;;;;;;;21.79;58.23;98861.25;2031906;77;21755;-81
2021/07/30 07:05:28;;;;;;;3.36;1.60;;;;;;;21.90;58.19;98857.94;2032443;80;20190;-81
2021/07/30 07:08:31;;;;;;;2.50;1.49;;;;;;;22.08;58.48;98854.22;2034124;80;20546;-82
2021/07/30 07:11:33;;;;;;;2.97;1.39;;;;;;;22.36;58.42;98855.22;2033409;80;20174;-81
2021/07/30 07:14:36;;;;;;;3.70;1.10;;;;;;;22.64;57.09;98854.38;2033011;80;20193;-81
2021/07/30 07:17:39;;;;;;;1.89;1.11;;;;;;;22.75;55.73;98847.47;2029028;77;24926;-81
2021/07/30 07:20:41;;;;;;;2.99;1.14;;;;;;;23.00;55.64;98849.47;2032564;80;20176;-82
2021/07/30 07:23:44;;;;;;;1.79;1.10;;;;;;;23.11;54.98;98852.25;2033263;80;20185;-82
2021/07/30 07:26:46;;;;;;;4.32;1.24;;;;;;;23.26;54.60;98849.56;2035744;80;20187;-81
2021/07/30 07:29:49;;;;;;;3.01;1.08;;;;;;;23.27;53.94;98848.63;2036046;80;20210;-82
2021/07/30 07:32:51;;;;;;;3.06;1.15;;;;;;;23.32;53.50;98849.16;2033618;78;20771;-82
2021/07/30 07:35:54;;;;;;;4.22;1.06;;;;;;;23.23;53.65;98844.47;2032877;80;20171;-83
2021/07/30 07:38:57;;;;;;;2.75;1.15;;;;;;;23.45;54.00;98837.66;2036727;80;20193;-82
2021/07/30 07:42:00;;;;;;;3.88;1.09;;;;;;;23.70;54.35;98836.09;2037494;80;20189;-83
2021/07/30 07:45:03;;;;;;;1.38;1.10;;;;;;;23.98;53.87;98832.41;2037797;80;20222;-86
2021/07/30 07:48:05;;;;;;;1.41;1.13;;;;;;;24.20;52.33;98831.78;2035606;80;20135;-85
2021/07/30 07:51:08;;;;;;;3.00;1.00;;;;;;;24.24;51.92;98833.28;2030033;80;20171;-77
2021/07/30 07:54:11;;;;;;;1.65;0.82;;;;;;;24.34;50.50;98827.25;2026471;80;20198;-82
2021/07/30 07:57:13;;;;;;;2.59;1.00;;;;;;;24.40;50.46;98824.16;2031247;80;20172;-80
2021/07/30 08:00:16;;;;;;;1.30;0.94;;;;;;;24.52;50.55;98829.56;2032025;80;20139;-84
2021/07/30 08:03:18;;;;;;;1.99;0.94;;;;;;;24.55;49.20;98829.34;2032806;80;20179;-81
2021/07/30 08:06:25;;;;;;;1.51;1.10;;;;;;;24.74;50.78;98828.88;2036160;80;21195;-80
2021/07/30 08:09:29;;;;;;;2.04;0.90;;;;;;;24.83;49.74;98828.25;2029196;80;20175;-82
2021/07/30 08:12:33;;;;;;;3.41;0.90;;;;;;;24.99;49.33;98820.88;2035238;80;20166;-82
2021/07/30 08:15:42;;;;;;;1.84;0.90;;;;;;;25.09;48.30;98818.41;2034467;69;20219;-81
2021/07/30 08:18:45;;;;;;;3.17;0.90;;;;;;;25.23;48.89;98811.13;2023374;80;20287;-81
2021/07/30 08:21:48;;;;;;;3.29;0.90;;;;;;;25.31;46.11;98810.53;2019182;80;20260;-80
2021/07/30 08:24:50;;;;;;;3.89;1.01;;;;;;;25.37;45.98;98815.44;2019125;80;20797;-80
2021/07/30 08:27:53;;;;;;;3.47;0.98;;;;;;;25.42;45.61;98825.72;2019379;80;20198;-81
2021/07/30 08:30:55;;;;;;;0.99;0.89;;;;;;;25.55;44.80;98826.50;2007222;80;979150;-79
2021/07/30 08:33:58;;;;;;;3.00;1.08;;;;;;;25.72;46.01;98826.09;2017453;80;20225;-80
2021/07/30 08:37:00;;;;;;;2.61;0.90;;;;;;;25.88;45.74;98831.13;2017911;80;20168;-79
2021/07/30 08:40:04;;;;;;;2.79;0.90;;;;;;;25.97;44.93;98825.09;2017295;80;20176;-80
2021/07/30 08:43:12;;;;;;;5.14;1.00;;;;;;;26.11;44.85;98826.69;2018092;80;20193;-79
2021/07/30 08:46:16;;;;;;;1.92;0.90;;;;;;;26.28;44.96;98820.91;2018713;78;21970;-79
2021/07/30 08:49:19;;;;;;;2.04;1.09;;;;;;;26.26;43.59;98817.53;2022639;80;20732;-78
2021/07/30 08:52:32;;;;;;;2.64;1.45;;;;;;;26.34;44.41;98811.59;2023047;80;20783;-79
2021/07/30 08:55:35;;;;;;;1.38;0.90;;;;;;;26.39;44.87;98818.28;2022161;80;20200;-80
2021/07/30 08:58:38;;;;;;;3.53;1.00;;;;;;;26.60;44.00;98810.41;2022830;80;20196;-80
2021/07/30 09:01:41;;;;;;;2.63;0.90;;;;;;;26.75;43.39;98816.31;2018704;77;21265;-80
2021/07/30 09:04:44;;;;;;;2.16;1.01;;;;;;;26.86;41.77;98810.13;2017808;80;20203;-80
2021/07/30 09:07:46;;;;;;;2.92;1.00;;;;;;;27.08;43.15;98810.97;2017170;80;20627;-84
2021/07/30 09:10:49;;;;;;;2.40;1.02;;;;;;;27.28;41.89;98797.81;2018002;80;20680;-79
2021/07/30 09:13:52;;;;;;;6.29;0.90;;;;;;;27.09;41.85;98793.16;2017590;80;20381;-79
2021/07/30 09:16:55;;;;;;;2.79;1.10;;;;;;;27.13;40.24;98793.78;2015866;80;23255;-79
2021/07/30 09:20:03;;;;;;;3.89;1.16;;;;;;;27.16;39.93;98780.19;2018799;80;20844;-81
2021/07/30 09:23:06;;;;;;;0.80;0.80;;;;;;;26.65;41.56;98783.41;2018520;80;20293;-78
2021/07/30 09:26:08;;;;;;;1.05;0.80;;;;;;;26.71;40.62;98781.09;2017025;80;20175;-78
2021/07/30 09:29:16;;;;;;;1.30;1.00;;;;;;;26.67;41.50;98774.31;2016425;80;20287;-78
2021/07/30 09:32:19;;;;;;;1.51;0.98;;;;;;;26.57;39.73;98772.50;2020284;77;21953;-79
2021/07/30 09:35:22;;;;;;;4.09;0.88;;;;;;;26.71;41.27;98765.13;2022545;80;20183;-79
2021/07/30 09:38:26;;;;;;;2.60;1.00;;;;;;;26.86;42.19;98779.00;2022282;80;20553;-78
2021/07/30 09:41:28;;;;;;;3.64;1.20;;;;;;;26.94;40.95;98775.75;2023045;80;20345;-77
2021/07/30 09:44:54;;;;;;;3.11;0.93;;;;;;;26.79;41.25;98764.50;2022611;80;20273;-78
2021/07/30 09:47:57;;;;;;;1.15;0.95;;;;;;;27.00;40.56;98767.28;2016263;77;20702;-78
2021/07/30 09:51:00;;;;;;;3.54;1.00;;;;;;;27.13;39.99;98759.97;2017430;80;20522;-78
2021/07/30 09:54:03;;;;;;;0.99;0.80;;;;;;;27.19;39.36;98761.28;2017330;80;20931;-78
2021/07/30 09:57:06;;;;;;;3.00;1.10;;;;;;;27.57;41.18;98763.41;2016945;80;20270;-77
2021/07/30 10:00:14;;;;;;;5.82;1.24;;;;;;;27.63;40.29;98757.56;2019845;80;20331;-77
2021/07/30 10:03:18;;;;;;;;;;;;;;;27.56;38.92;98746.56;2021383;78;20680;-77
2021/07/30 10:06:21;;;;;;;1.74;0.99;;;;;;;27.59;40.59;98753.44;2019411;80;20520;-78
2021/07/30 10:09:24;;;;;;;2.13;1.00;;;;;;;27.34;39.69;98755.50;2016034;80;20266;-77
2021/07/30 10:12:29;;;;;;;4.39;1.20;;;;;;;27.35;38.03;98754.53;2019852;80;20194;-76
2021/07/30 10:15:33;;;;;;;2.50;0.96;;;;;;;26.93;39.42;98753.59;2017754;77;22669;-77
2021/07/30 10:18:35;;;;;;;2.39;1.00;;;;;;;27.09;40.47;98738.03;2016332;80;20175;-78
2021/07/30 10:21:39;;;;;;;1.21;1.06;;;;;;;27.52;38.58;98744.28;2016351;80;20283;-77
2021/07/30 10:24:49;;;;;;;2.67;0.90;;;;;;;27.59;39.43;98724.09;2013143;80;20266;-80
2021/07/30 10:27:57;;;;;;;2.75;1.19;;;;;;;27.88;39.62;98733.16;2016232;80;20164;-76
2021/07/30 10:31:06;;;;;;;;;;;;;;;27.72;37.32;98734.63;2017570;77;22057;-77
2021/07/30 10:34:09;;;;;;;3.35;1.01;;;;;;;27.30;38.81;98732.75;2021437;80;20693;-79
2021/07/30 10:37:37;;;;;;;0.91;0.84;;;;;;;27.37;39.25;98730.41;2021976;80;20263;-77
2021/07/30 10:40:41;;;;;;;;;;;;;;;27.57;39.75;98734.91;2021452;80;20183;-77
2021/07/30 10:43:49;;;;;;;1.17;1.00;;;;;;;27.21;38.43;98719.34;2021031;80;20067;-76
2021/07/30 10:47:18;;;;;;;2.17;1.04;;;;;;;27.07;40.69;98718.66;2017627;78;20867;-77
2021/07/30 10:50:46;;;;;;;1.96;1.00;;;;;;;27.48;39.68;98714.38;2019692;80;20189;-78
2021/07/30 10:53:56;;;;;;;2.53;1.13;;;;;;;27.82;38.31;98723.00;2016199;80;20180;-76
2021/07/30 10:56:58;;;;;;;2.10;1.02;;;;;;;27.73;37.63;98720.28;2012143;80;20176;-78
2021/07/30 11:00:04;;;;;;;1.09;1.02;;;;;;;27.52;37.37;98701.59;2015718;80;20187;-77
2021/07/30 11:03:07;;;;;;;2.10;1.11;;;;;;;27.46;37.70;98704.78;2010750;78;22335;-76
2021/07/30 11:06:10;;;;;;;1.10;1.00;;;;;;;27.60;37.34;98699.97;2009545;80;20351;-77
2021/07/30 11:09:17;;;;;;;4.41;1.05;;;;;;;27.44;37.80;98696.91;2011554;80;20634;-77
2021/07/30 11:12:20;;;;;;;1.64;1.00;;;;;;;27.67;37.41;98684.34;2013894;80;20218;-77
2021/07/30 11:15:30;;;;;;;1.54;1.20;;;;;;;27.57;37.23;98681.56;2013549;77;20213;-77
2021/07/30 11:18:38;;;;;;;2.03;1.10;;;;;;;27.28;36.09;98686.69;2022400;80;20798;-77
2021/07/30 11:21:41;;;;;;;1.88;1.10;;;;;;;27.68;38.08;98684.19;2022531;80;20183;-76
2021/07/30 11:24:46;;;;;;;1.79;1.15;;;;;;;28.11;38.13;98680.44;2023080;80;20179;-78
2021/07/30 11:27:57;;;;;;;3.86;1.09;;;;;;;28.02;36.50;98683.94;2023523;80;20201;-77
2021/07/30 11:30:59;;;;;;;1.60;1.00;;;;;;;28.30;38.12;98679.69;2021142;77;20728;-77
2021/07/30 11:34:02;;;;;;;1.59;1.20;;;;;;;28.24;37.53;98680.22;2017825;80;20577;-78
2021/07/30 11:37:07;;;;;;;4.88;1.08;;;;;;;27.94;38.39;98673.91;2017864;80;20180;-77
2021/07/30 11:40:14;;;;;;;1.81;1.60;;;;;;;27.36;38.65;98686.91;2017609;80;20361;-76
2021/07/30 11:43:17;;;;;;;3.14;1.21;;;;;;;27.00;39.85;98685.50;2018242;80;20295;-77
2021/07/30 11:46:20;;;;;;;2.65;1.25;;;;;;;26.96;40.21;98676.03;2016748;77;20442;-77
2021/07/30 11:49:37;;;;;;;1.69;1.13;;;;;;;26.97;39.02;98675.06;2016839;80;20184;-77
2021/07/30 11:52:42;;;;;;;1.62;1.10;;;;;;;26.91;39.64;98678.22;2018044;80;20172;-78
2021/07/30 11:55:55;;;;;;;2.66;1.01;;;;;;;26.69;40.52;98675.66;2018167;80;20419;-76
2021/07/30 11:59:02;;;;;;;2.28;1.10;;;;;;;26.99;42.48;98666.94;2017308;80;20260;-79
2021/07/30 12:02:06;;;;;;;3.34;1.25;;;;;;;27.49;40.38;98667.19;2016510;78;20698;-77
2021/07/30 12:05:09;;;;;;;3.14;1.38;;;;;;;28.03;40.90;98672.28;2015789;80;20191;-76
2021/07/30 12:08:12;;;;;;;3.00;1.19;;;;;;;27.46;38.47;98668.28;2017501;80;20194;-76
2021/07/30 12:11:15;;;;;;;6.41;1.41;;;;;;;26.84;38.77;98665.56;2017279;80;20252;-77
2021/07/30 12:14:20;;;;;;;3.67;1.56;;;;;;;26.26;40.56;98668.47;2017484;80;20205;-77
2021/07/30 12:17:30;;;;;;;2.01;1.41;;;;;;;26.17;42.13;98661.19;2020106;77;21039;-77
2021/07/30 12:20:38;;;;;;;1.84;1.71;;;;;;;26.15;42.94;98657.81;2022439;80;20199;-77
2021/07/30 12:23:41;;;;;;;5.21;1.61;;;;;;;26.20;43.16;98652.97;2023166;80;20260;-77
2021/07/30 12:26:43;;;;;;;3.71;1.67;;;;;;;26.28;43.01;98655.03;2022208;80;20221;-77
2021/07/30 12:29:47;;;;;;;1.56;1.45;;;;;;;26.38;43.44;98643.53;2023403;80;20204;-77
2021/07/30 12:32:50;;;;;;;1.60;1.50;;;;;;;26.83;42.79;98642.53;2022113;77;22897;-76
2021/07/30 12:36:06;;;;;;;1.71;1.54;;;;;;;26.89;39.31;98634.03;2022724;80;20196;-78
2021/07/30 12:39:10;;;;;;;2.92;1.40;;;;;;;27.17;41.15;98643.28;2023356;80;20252;-76
2021/07/30 12:42:23;;;;;;;2.03;1.48;;;;;;;27.04;39.16;98643.44;2022900;80;20664;-77
2021/07/30 12:45:37;;;;;;;3.67;1.45;;;;;;;27.25;39.43;98638.13;2021540;77;20707;-77
2021/07/30 12:48:47;;;;;;;2.54;1.58;;;;;;;27.20;41.79;98637.69;2023140;80;20175;-77
2021/07/30 12:51:50;;;;;;;3.31;1.67;;;;;;;26.80;39.46;98630.34;2022813;80;20384;-78
2021/07/30 12:55:06;;;;;;;2.65;1.75;;;;;;;26.53;40.70;98638.75;2022011;80;20187;-78
2021/07/30 12:58:10;;;;;;;3.36;1.66;;;;;;;26.22;41.86;98634.22;2022755;80;20312;-78
2021/07/30 13:01:14;;;;;;;3.83;1.25;;;;;;;26.18;42.95;98638.94;2021933;77;20762;-78
2021/07/30 13:04:17;;;;;;;5.04;1.59;;;;;;;26.79;44.28;98632.16;2022712;80;20321;-77
2021/07/30 13:07:21;;;;;;;3.99;1.30;;;;;;;27.20;41.87;98611.84;2021895;80;20175;-78
2021/07/30 13:10:24;;;;;;;2.69;1.79;;;;;;;27.27;41.41;98623.69;2018019;80;20269;-77
2021/07/30 13:13:28;;;;;;;1.40;1.30;;;;;;;27.26;40.53;98608.66;2022256;80;20167;-77
2021/07/30 13:16:31;;;;;;;2.39;1.40;;;;;;;27.52;40.78;98601.09;2018980;77;25528;-78
2021/07/30 13:19:33;;;;;;;4.31;1.16;;;;;;;27.63;40.07;98593.03;2016911;80;20514;-78
2021/07/30 13:22:36;;;;;;;1.46;1.36;;;;;;;27.63;38.96;98602.84;2016684;80;20742;-78
2021/07/30 13:25:38;;;;;;;3.78;1.48;;;;;;;27.48;39.46;98598.84;2017640;80;21158;-77
2021/07/30 13:28:41;;;;;;;1.67;1.17;;;;;;;27.37;38.35;98581.09;2017248;80;20205;-78
2021/07/30 13:31:44;;;;;;;4.10;1.44;;;;;;;26.88;39.56;98584.38;2016119;77;49209;-77
2021/07/30 13:34:47;;;;;;;3.67;1.31;;;;;;;26.89;40.87;98578.94;2017133;80;21211;-78
2021/07/30 13:37:50;;;;;;;2.11;1.56;;;;;;;26.43;41.63;98576.63;2017591;80;20609;-78
2021/07/30 13:40:54;;;;;;;2.36;1.66;;;;;;;26.13;41.62;98577.25;2017899;80;20642;-78
2021/07/30 13:43:56;;;;;;;4.50;1.77;;;;;;;26.40;41.43;98575.06;2017898;80;20201;-78
2021/07/30 13:46:59;;;;;;;4.79;1.69;;;;;;;26.44;42.92;98576.47;2019701;80;21436;-76
2021/07/30 13:50:02;;;;;;;1.95;1.48;;;;;;;26.64;42.20;98566.84;2021777;80;20644;-78
2021/07/30 13:53:05;;;;;;;1.98;1.41;;;;;;;26.95;41.28;98562.44;2020633;80;20235;-77
2021/07/30 13:56:08;;;;;;;2.97;1.50;;;;;;;26.68;40.15;98559.44;2021565;80;20178;-79
2021/07/30 13:59:10;;;;;;;1.56;1.38;;;;;;;27.00;41.27;98570.91;2021401;80;20642;-78
2021/07/30 14:02:13;;;;;;;2.90;1.41;;;;;;;26.99;40.16;98550.53;2020893;77;21866;-78
2021/07/30 14:05:16;;;;;;;1.42;1.20;;;;;;;26.82;40.37;98556.44;2021237;80;20213;-77
2021/07/30 14:08:18;;;;;;;3.16;1.50;;;;;;;26.79;40.77;98546.91;2020608;80;20199;-77
2021/07/30 14:11:21;;;;;;;1.20;1.10;;;;;;;27.10;40.12;98555.81;2021437;80;20202;-77
2021/07/30 14:14:23;;;;;;;5.22;1.50;;;;;;;27.30;40.34;98559.47;2021980;80;20238;-75
2021/07/30 14:17:26;;;;;;;2.56;1.40;;;;;;;27.45;40.38;98551.94;2017020;77;21006;-77
2021/07/30 14:20:29;;;;;;;1.56;1.40;;;;;;;27.15;38.40;98551.94;2018108;80;20743;-77
2021/07/30 14:23:31;;;;;;;4.50;1.30;;;;;;;27.18;40.58;98547.19;2018247;80;20200;-77
2021/07/30 14:26:34;;;;;;;1.80;1.30;;;;;;;27.32;40.70;98554.00;2016721;80;20346;-77